createdAt,value
2023-01-26T00:00:21.471Z,-3.10
2023-01-26T00:03:33.234Z,-3.16
2023-01-26T00:06:41.074Z,-3.05
2023-01-26T00:09:52.335Z,-3.23
2023-01-26T00:12:59.322Z,-3.35
2023-01-26T00:16:06.931Z,-3.31
2023-01-26T00:19:16.462Z,-3.38
2023-01-26T00:22:22.644Z,-3.40
2023-01-26T00:25:29.603Z,-3.43
2023-01-26T00:28:35.673Z,-3.52
2023-01-26T00:31:42.607Z,-3.49
2023-01-26T00:34:51.427Z,-3.44
2023-01-26T00:37:58.278Z,-3.24
2023-01-26T00:41:04.508Z,-3.15
2023-01-26T00:44:11.528Z,-3.30
2023-01-26T00:47:17.897Z,-3.31
2023-01-26T00:50:27.437Z,-3.03
2023-01-26T00:53:35.927Z,-2.88
2023-01-26T00:56:42.798Z,-2.83
2023-01-26T00:59:48.886Z,-2.85
2023-01-26T01:02:57.408Z,-2.94
2023-01-26T01:06:06.402Z,-3.00
2023-01-26T01:09:13.460Z,-2.92
2023-01-26T01:12:19.856Z,-2.68
2023-01-26T01:15:28.595Z,-2.56
2023-01-26T01:18:34.669Z,-2.40
2023-01-26T01:21:45.714Z,-2.58
2023-01-26T01:24:52.699Z,-2.43
2023-01-26T01:27:59.666Z,-2.36
2023-01-26T01:31:08.954Z,-2.33
2023-01-26T01:34:16.022Z,-2.48
2023-01-26T01:37:24.732Z,-2.50
2023-01-26T01:40:31.788Z,-2.48
2023-01-26T01:43:40.000Z,-2.56
2023-01-26T01:46:56.847Z,-2.43
2023-01-26T01:50:05.174Z,-2.36
2023-01-26T01:53:26.081Z,-2.47
2023-01-26T01:56:36.607Z,-2.37
2023-01-26T01:59:45.857Z,-2.57
2023-01-26T02:03:15.170Z,-2.56
2023-01-26T02:06:33.055Z,-2.64
2023-01-26T02:09:57.693Z,-2.40
2023-01-26T02:13:08.913Z,-2.69
2023-01-26T02:16:15.391Z,-2.78
2023-01-26T02:19:40.268Z,-2.63
2023-01-26T02:23:01.828Z,-2.60
2023-01-26T02:26:17.223Z,-2.50
2023-01-26T02:29:25.867Z,-2.50
2023-01-26T02:32:32.209Z,-2.52
2023-01-26T02:35:39.280Z,-2.65
2023-01-26T02:38:58.454Z,-2.55
2023-01-26T02:42:20.872Z,-2.53
2023-01-26T02:45:30.719Z,-2.48
2023-01-26T02:49:02.102Z,-2.44
2023-01-26T02:52:09.550Z,-2.41
2023-01-26T02:55:26.556Z,-2.40
2023-01-26T02:58:35.430Z,-2.18
2023-01-26T03:01:42.330Z,-2.14
2023-01-26T03:04:48.561Z,-2.13
2023-01-26T03:07:55.614Z,-2.32
2023-01-26T03:11:04.901Z,-2.27
2023-01-26T03:14:18.523Z,-2.05
2023-01-26T03:17:24.710Z,-2.16
2023-01-26T03:20:43.986Z,-2.06
2023-01-26T03:24:02.528Z,-1.93
2023-01-26T03:27:25.903Z,-1.80
2023-01-26T03:30:35.534Z,-1.70
2023-01-26T03:33:42.867Z,-1.70
2023-01-26T03:36:49.661Z,-1.69
2023-01-26T03:40:11.320Z,-1.70
2023-01-26T03:43:30.363Z,-1.67
2023-01-26T03:46:52.279Z,-1.90
2023-01-26T03:50:11.774Z,-1.81
2023-01-26T03:53:34.793Z,-1.76
2023-01-26T03:56:41.111Z,-1.67
2023-01-26T03:59:53.292Z,-1.60
2023-01-26T04:03:16.527Z,-1.64
2023-01-26T04:06:36.053Z,-1.84
2023-01-26T04:09:42.587Z,-1.86
2023-01-26T04:13:01.864Z,-1.98
2023-01-26T04:16:22.385Z,-2.07
2023-01-26T04:19:44.302Z,-2.26
2023-01-26T04:22:50.491Z,-2.43
2023-01-26T04:25:58.221Z,-2.33
2023-01-26T04:29:05.449Z,-2.36
2023-01-26T04:32:12.896Z,-2.37
2023-01-26T04:35:21.770Z,-2.32
2023-01-26T04:38:29.071Z,-2.37
2023-01-26T04:41:36.661Z,-2.34
2023-01-26T04:44:50.071Z,-2.33
2023-01-26T04:47:56.852Z,-2.23
2023-01-26T04:51:10.100Z,-2.15
2023-01-26T04:54:16.589Z,-2.18
2023-01-26T04:57:24.902Z,-2.51
2023-01-26T05:00:31.790Z,-2.38
2023-01-26T05:03:40.374Z,-2.41
2023-01-26T05:06:49.126Z,-2.38
2023-01-26T05:09:56.065Z,-2.36
2023-01-26T05:13:31.322Z,-2.31
2023-01-26T05:16:56.514Z,-2.23
2023-01-26T05:20:19.853Z,-2.25
2023-01-26T05:23:45.357Z,-2.22
2023-01-26T05:27:19.466Z,-2.25
2023-01-26T05:30:29.308Z,-2.36
2023-01-26T05:33:36.337Z,-2.39
2023-01-26T05:36:44.271Z,-2.50
2023-01-26T05:39:53.014Z,-2.66
2023-01-26T05:43:00.657Z,-2.65
2023-01-26T05:46:24.766Z,-3.00
2023-01-26T05:49:31.994Z,-2.96
2023-01-26T05:52:38.984Z,-3.12
2023-01-26T05:55:48.958Z,-3.14
2023-01-26T05:58:58.926Z,-2.98
2023-01-26T06:02:06.649Z,-3.10
2023-01-26T06:05:15.284Z,-2.95
2023-01-26T06:08:30.909Z,-2.82
2023-01-26T06:12:03.076Z,-2.97
2023-01-26T06:15:27.091Z,-3.07
2023-01-26T06:18:34.618Z,-2.93
2023-01-26T06:21:41.785Z,-2.88
2023-01-26T06:24:48.150Z,-2.96
2023-01-26T06:28:01.364Z,-2.88
2023-01-26T06:31:11.930Z,-2.92
2023-01-26T06:34:20.214Z,-2.91
2023-01-26T06:37:26.618Z,-2.97
2023-01-26T06:40:34.112Z,-2.89
2023-01-26T06:43:47.682Z,-3.10
2023-01-26T06:46:54.976Z,-2.89
2023-01-26T06:50:03.038Z,-2.78
2023-01-26T06:53:32.760Z,-3.06
2023-01-26T06:56:56.161Z,-2.88
2023-01-26T07:00:31.839Z,-2.81
2023-01-26T07:03:52.994Z,-3.12
2023-01-26T07:07:00.492Z,-3.25
2023-01-26T07:10:07.695Z,-3.13
2023-01-26T07:13:14.674Z,-3.08
2023-01-26T07:16:23.475Z,-2.87
2023-01-26T07:19:31.609Z,-2.89
2023-01-26T07:22:37.701Z,-3.04
2023-01-26T07:25:47.170Z,-2.86
2023-01-26T07:28:53.266Z,-3.18
2023-01-26T07:32:02.843Z,-3.19
2023-01-26T07:35:10.910Z,-2.93
2023-01-26T07:38:18.551Z,-2.91
2023-01-26T07:41:24.610Z,-2.87
2023-01-26T07:44:31.611Z,-2.75
2023-01-26T07:47:40.641Z,-2.75
2023-01-26T07:50:48.806Z,-2.93
2023-01-26T07:53:54.920Z,-3.35
2023-01-26T07:57:01.952Z,-3.04
2023-01-26T08:00:12.754Z,-3.15
2023-01-26T08:03:22.538Z,-2.84
2023-01-26T08:06:28.830Z,-2.71
2023-01-26T08:09:36.316Z,-2.64
2023-01-26T08:12:42.419Z,-2.71
2023-01-26T08:15:49.434Z,-2.52
2023-01-26T08:18:58.106Z,-2.45
2023-01-26T08:22:05.091Z,-2.53
2023-01-26T08:25:12.798Z,-2.21
2023-01-26T08:28:21.196Z,-2.33
2023-01-26T08:31:28.520Z,-2.21
2023-01-26T08:34:39.428Z,-2.18
2023-01-26T08:37:45.533Z,-1.97
2023-01-26T08:40:55.964Z,-1.85
2023-01-26T08:44:02.248Z,-1.89
2023-01-26T08:47:09.234Z,-1.82
2023-01-26T08:50:18.232Z,-1.85
2023-01-26T08:53:25.466Z,-1.94
2023-01-26T08:56:31.540Z,-1.88
2023-01-26T08:59:38.302Z,-1.86
2023-01-26T09:02:44.379Z,-2.16
2023-01-26T09:05:54.068Z,-1.94
2023-01-26T09:09:00.473Z,-1.92
2023-01-26T09:12:08.506Z,-1.99
2023-01-26T09:15:15.172Z,-2.10
2023-01-26T09:18:22.304Z,-2.10
2023-01-26T09:21:31.134Z,-2.20
2023-01-26T09:24:38.062Z,-2.18
2023-01-26T09:27:44.886Z,-1.88
2023-01-26T09:30:51.904Z,-1.99
2023-01-26T09:33:58.051Z,-2.00
2023-01-26T09:37:10.013Z,-2.04
2023-01-26T09:40:26.248Z,-2.05
2023-01-26T09:43:43.298Z,-1.94
2023-01-26T09:47:09.205Z,-1.96
2023-01-26T09:50:26.180Z,-1.86
2023-01-26T09:53:49.696Z,-1.91
2023-01-26T09:56:58.946Z,-1.88
2023-01-26T10:00:13.346Z,-1.85
2023-01-26T10:03:35.759Z,-1.76
2023-01-26T10:06:43.181Z,-1.76
2023-01-26T10:10:05.536Z,-1.64
2023-01-26T10:13:19.836Z,-1.48
2023-01-26T10:16:29.491Z,-1.53
2023-01-26T10:19:44.048Z,-1.45
2023-01-26T10:22:57.882Z,-1.54
2023-01-26T10:26:18.036Z,-1.38
2023-01-26T10:29:26.464Z,-1.35
2023-01-26T10:32:32.629Z,-1.37
2023-01-26T10:35:39.762Z,-1.38
2023-01-26T10:38:50.136Z,-1.34
2023-01-26T10:42:05.791Z,-1.25
2023-01-26T10:45:33.471Z,-1.24
2023-01-26T10:48:40.407Z,-1.20
2023-01-26T10:51:49.570Z,-1.43
2023-01-26T10:55:20.356Z,-1.63
2023-01-26T10:58:51.707Z,-1.71
2023-01-26T11:02:03.850Z,-1.51
2023-01-26T11:05:27.194Z,-1.33
2023-01-26T11:08:38.456Z,-1.39
2023-01-26T11:12:01.353Z,-1.66
2023-01-26T11:15:23.283Z,-1.47
2023-01-26T11:18:45.507Z,-1.74
2023-01-26T11:22:01.775Z,-1.75
2023-01-26T11:25:26.037Z,-1.77
2023-01-26T11:28:57.649Z,-1.80
2023-01-26T11:32:22.264Z,-1.54
2023-01-26T11:35:46.354Z,-1.24
2023-01-26T11:39:10.765Z,-0.94
2023-01-26T11:42:40.126Z,-1.09
2023-01-26T11:46:19.597Z,-0.96
2023-01-26T11:49:54.465Z,-1.24
2023-01-26T11:53:31.051Z,-1.16
2023-01-26T11:56:53.451Z,-1.46
2023-01-26T12:00:29.093Z,-1.67
2023-01-26T12:03:48.459Z,-1.49
2023-01-26T12:07:06.860Z,-1.21
2023-01-26T12:10:19.189Z,-1.05
2023-01-26T12:13:39.290Z,-1.00
2023-01-26T12:17:18.028Z,-0.76
2023-01-26T12:20:41.543Z,-0.70
2023-01-26T12:24:04.132Z,-0.64
2023-01-26T12:27:26.907Z,-0.84
2023-01-26T12:30:48.030Z,-1.01
2023-01-26T12:34:00.117Z,-1.20
2023-01-26T12:37:44.657Z,-0.93
2023-01-26T12:41:13.795Z,-1.13
2023-01-26T12:44:39.941Z,-1.11
2023-01-26T12:47:55.934Z,-0.97
2023-01-26T12:51:13.008Z,-1.30
2023-01-26T12:54:31.114Z,-1.55
2023-01-26T12:57:52.202Z,-1.59
2023-01-26T13:01:08.251Z,-1.37
2023-01-26T13:04:19.793Z,-1.07
2023-01-26T13:07:40.263Z,-0.90
2023-01-26T13:10:52.965Z,-0.84
2023-01-26T13:14:01.734Z,-0.82
2023-01-26T13:17:51.444Z,-1.34
2023-01-26T13:20:57.647Z,-1.41
2023-01-26T13:24:05.033Z,-1.14
2023-01-26T13:27:33.510Z,-1.02
2023-01-26T13:30:50.614Z,-0.81
2023-01-26T13:33:57.184Z,-0.64
2023-01-26T13:37:16.241Z,-0.65
2023-01-26T13:40:31.223Z,-0.68
2023-01-26T13:43:46.709Z,-0.76
2023-01-26T13:47:05.037Z,-0.75
2023-01-26T13:50:26.709Z,-1.08
2023-01-26T13:53:46.742Z,-1.06
2023-01-26T13:57:09.110Z,-0.97
2023-01-26T14:00:17.490Z,-0.84
2023-01-26T14:03:27.584Z,-0.77
2023-01-26T14:06:35.530Z,-0.87
2023-01-26T14:09:52.888Z,-0.78
2023-01-26T14:13:01.446Z,-1.04
2023-01-26T14:16:10.935Z,-0.97
2023-01-26T14:19:23.443Z,-1.06
2023-01-26T14:22:31.228Z,-0.99
2023-01-26T14:25:38.079Z,-0.91
2023-01-26T14:28:47.100Z,-0.99
2023-01-26T14:31:57.925Z,-1.14
2023-01-26T14:35:24.263Z,-1.10
2023-01-26T14:38:33.293Z,-1.02
2023-01-26T14:41:40.842Z,-1.09
2023-01-26T14:44:47.282Z,-1.09
2023-01-26T14:47:58.529Z,-0.96
2023-01-26T14:51:17.275Z,-1.11
2023-01-26T14:54:34.098Z,-1.12
2023-01-26T14:57:40.625Z,-1.12
2023-01-26T15:00:52.283Z,-1.09
2023-01-26T15:04:09.463Z,-1.13
2023-01-26T15:07:39.153Z,-0.98
2023-01-26T15:10:55.955Z,-0.97
2023-01-26T15:14:03.162Z,-1.04
2023-01-26T15:17:09.794Z,-1.08
2023-01-26T15:20:46.129Z,-1.12
2023-01-26T15:23:58.572Z,-1.25
2023-01-26T15:27:10.563Z,-1.31
2023-01-26T15:30:22.308Z,-1.55
2023-01-26T15:33:56.206Z,-1.49
2023-01-26T15:37:03.908Z,-1.51
2023-01-26T15:40:15.663Z,-1.60
2023-01-26T15:43:24.078Z,-1.73
2023-01-26T15:46:31.455Z,-1.80
2023-01-26T15:49:37.697Z,-1.76
2023-01-26T15:52:45.161Z,-1.65
2023-01-26T15:55:56.479Z,-1.49
2023-01-26T15:59:03.610Z,-1.45
2023-01-26T16:02:19.566Z,-1.39
2023-01-26T16:05:28.271Z,-1.43
2023-01-26T16:08:35.107Z,-1.34
2023-01-26T16:11:54.168Z,-1.42
2023-01-26T16:15:00.587Z,-1.45
2023-01-26T16:18:07.815Z,-1.47
2023-01-26T16:21:24.134Z,-1.47
2023-01-26T16:24:31.227Z,-1.49
2023-01-26T16:27:40.170Z,-1.43
2023-01-26T16:30:52.566Z,-1.66
2023-01-26T16:33:59.695Z,-1.80
2023-01-26T16:37:06.869Z,-2.09
2023-01-26T16:40:17.445Z,-1.95
2023-01-26T16:43:30.984Z,-1.93
2023-01-26T16:46:37.247Z,-2.14
2023-01-26T16:49:45.751Z,-2.18
2023-01-26T16:52:52.437Z,-2.16
2023-01-26T16:55:59.941Z,-2.26
2023-01-26T16:59:08.904Z,-2.28
2023-01-26T17:02:28.771Z,-2.13
2023-01-26T17:05:35.230Z,-2.12
2023-01-26T17:08:42.975Z,-2.35
2023-01-26T17:11:49.057Z,-2.32
2023-01-26T17:14:58.666Z,-2.30
2023-01-26T17:18:04.816Z,-2.18
2023-01-26T17:21:12.000Z,-2.14
2023-01-26T17:24:18.154Z,-2.23
2023-01-26T17:27:26.073Z,-2.25
2023-01-26T17:30:34.861Z,-2.22
2023-01-26T17:33:42.909Z,-2.46
2023-01-26T17:36:49.126Z,-2.46
2023-01-26T17:39:56.283Z,-2.32
2023-01-26T17:43:02.493Z,-2.12
2023-01-26T17:46:17.119Z,-2.07
2023-01-26T17:49:25.247Z,-2.20
2023-01-26T17:52:35.579Z,-2.35
2023-01-26T17:55:41.768Z,-2.42
2023-01-26T17:58:54.049Z,-2.56
2023-01-26T18:02:03.097Z,-2.28
2023-01-26T18:05:12.655Z,-2.13
2023-01-26T18:08:19.324Z,-1.92
2023-01-26T18:11:27.697Z,-1.85
2023-01-26T18:14:36.227Z,-1.81
2023-01-26T18:17:45.850Z,-1.70
2023-01-26T18:20:52.017Z,-1.61
2023-01-26T18:24:02.699Z,-1.53
2023-01-26T18:27:08.877Z,-1.65
2023-01-26T18:30:17.245Z,-1.77
2023-01-26T18:33:26.022Z,-1.81
2023-01-26T18:36:34.309Z,-1.77
2023-01-26T18:39:41.073Z,-1.64
2023-01-26T18:42:49.518Z,-1.51
2023-01-26T18:45:55.718Z,-1.69
2023-01-26T18:49:05.420Z,-1.75
2023-01-26T18:52:12.840Z,-1.82
2023-01-26T18:55:20.458Z,-1.78
2023-01-26T18:58:26.534Z,-1.78
2023-01-26T19:01:33.634Z,-1.82
2023-01-26T19:04:43.562Z,-2.03
2023-01-26T19:07:50.640Z,-1.79
2023-01-26T19:10:56.799Z,-1.62
2023-01-26T19:14:05.346Z,-1.59
2023-01-26T19:17:11.530Z,-1.86
2023-01-26T19:20:22.671Z,-1.74
2023-01-26T19:23:30.141Z,-1.53
2023-01-26T19:26:37.622Z,-1.52
2023-01-26T19:29:44.071Z,-1.52
2023-01-26T19:33:04.659Z,-1.55
2023-01-26T19:36:13.984Z,-1.47
2023-01-26T19:39:20.964Z,-1.39
2023-01-26T19:42:27.165Z,-1.36
2023-01-26T19:45:34.789Z,-1.54
2023-01-26T19:48:42.288Z,-1.71
2023-01-26T19:51:53.530Z,-1.65
2023-01-26T19:54:59.805Z,-1.67
2023-01-26T19:58:06.690Z,-1.71
2023-01-26T20:01:15.760Z,-1.81
2023-01-26T20:04:22.962Z,-1.82
2023-01-26T20:07:32.039Z,-1.80
2023-01-26T20:10:39.019Z,-1.90
2023-01-26T20:13:46.243Z,-1.77
2023-01-26T20:16:53.399Z,-1.78
2023-01-26T20:19:59.880Z,-1.90
2023-01-26T20:23:09.980Z,-1.90
2023-01-26T20:26:16.215Z,-1.96
2023-01-26T20:29:24.466Z,-1.96
2023-01-26T20:32:31.082Z,-1.86
2023-01-26T20:35:38.187Z,-1.91
2023-01-26T20:38:48.336Z,-1.92
2023-01-26T20:41:57.417Z,-1.94
2023-01-26T20:45:04.076Z,-1.90
2023-01-26T20:48:11.651Z,-1.89
2023-01-26T20:51:21.870Z,-1.90
2023-01-26T20:54:31.547Z,-1.93
2023-01-26T20:57:38.316Z,-1.90
2023-01-26T21:00:48.006Z,-1.81
2023-01-26T21:03:55.435Z,-1.70
2023-01-26T21:07:02.544Z,-1.73
2023-01-26T21:10:13.417Z,-1.77
2023-01-26T21:13:20.734Z,-1.86
2023-01-26T21:16:28.610Z,-1.96
2023-01-26T21:19:35.707Z,-1.85
2023-01-26T21:22:41.963Z,-1.89
2023-01-26T21:25:51.684Z,-1.83
2023-01-26T21:29:01.347Z,-1.82
2023-01-26T21:32:09.250Z,-1.91
2023-01-26T21:35:16.880Z,-1.94
2023-01-26T21:38:23.866Z,-2.01
2023-01-26T21:41:47.631Z,-2.05
2023-01-26T21:45:07.175Z,-2.02
2023-01-26T21:48:25.744Z,-2.02
2023-01-26T21:51:45.862Z,-1.91
2023-01-26T21:54:52.036Z,-2.00
2023-01-26T21:58:14.044Z,-2.01
2023-01-26T22:01:20.413Z,-2.00
2023-01-26T22:04:31.339Z,-2.02
2023-01-26T22:07:37.638Z,-2.00
2023-01-26T22:10:44.716Z,-2.01
2023-01-26T22:13:53.552Z,-2.02
2023-01-26T22:17:00.665Z,-2.02
2023-01-26T22:20:07.632Z,-2.05
2023-01-26T22:23:16.120Z,-2.01
2023-01-26T22:26:25.939Z,-1.99
2023-01-26T22:29:35.651Z,-2.04
2023-01-26T22:32:41.904Z,-1.96
2023-01-26T22:35:48.843Z,-2.02
2023-01-26T22:38:55.558Z,-1.94
2023-01-26T22:42:02.556Z,-1.94
2023-01-26T22:45:14.210Z,-1.95
2023-01-26T22:48:22.058Z,-2.00
2023-01-26T22:51:31.167Z,-2.09
2023-01-26T22:54:38.150Z,-2.11
2023-01-26T22:57:44.311Z,-2.09
2023-01-26T23:00:53.883Z,-2.13
2023-01-26T23:04:01.758Z,-2.10
2023-01-26T23:07:08.770Z,-2.14
2023-01-26T23:10:15.255Z,-2.13
2023-01-26T23:13:22.303Z,-2.23
2023-01-26T23:16:31.800Z,-2.08
2023-01-26T23:19:38.757Z,-2.07
2023-01-26T23:22:44.927Z,-1.99
2023-01-26T23:25:55.300Z,-2.01
2023-01-26T23:29:01.344Z,-1.99
2023-01-26T23:32:12.396Z,-1.93
2023-01-26T23:35:18.811Z,-2.04
2023-01-26T23:38:28.941Z,-2.16
2023-01-26T23:41:35.012Z,-2.18
2023-01-26T23:44:41.992Z,-2.18
2023-01-26T23:47:52.158Z,-2.11
2023-01-26T23:51:00.297Z,-2.10
2023-01-26T23:54:06.556Z,-2.08
2023-01-26T23:57:13.711Z,-2.06
